METAR Data
IDs: Format: Raw Decoded Include TAF

Data at: 1207 UTC 21 Oct 2018

KDRT 211153Z AUTO 36004KT 10SM OVC100 16/13 A3029 RMK AO2 SLP248 70004 T01610128 10178 20161 53006
KDRT 211053Z AUTO 01004KT 10SM OVC100 17/13 A3027 RMK AO2 SLP240 T01670128
KDRT 210953Z AUTO 34005KT 10SM OVC100 17/15 A3027 RMK AO2 SLP238 T01670150
KDRT 210853Z AUTO 00000KT 10SM BKN095 BKN110 17/17 A3027 RMK AO2 SLP240 T01670167 56006
KDRT 210753Z AUTO 00000KT 10SM BKN100 OVC120 17/17 A3029 RMK AO2 SLP246 T01720167
KDRT 210653Z AUTO 32004KT 10SM BKN110 17/17 A3028 RMK AO2 SLP242 T01720167
KDRT 210553Z AUTO 31004KT 10SM FEW085 OVC100 17/17 A3029 RMK AO2 SLP247 60000 T01720167 10194 20172 402060161 51009
KDRT 210453Z AUTO 31005KT 10SM BKN085 18/17 A3029 RMK AO2 SLP246 T01780167
KDRT 210353Z AUTO 32004KT 10SM OVC100 18/17 A3028 RMK AO2 SLP243 T01780167
KDRT 210253Z AUTO 29006KT 10SM BKN085 OVC100 18/17 A3026 RMK AO2 SLP238 60000 T01830172 51019
KDRT 210153Z AUTO 30006KT 10SM OVC070 18/18 A3025 RMK AO2 SLP234 T01830178
KDRT 210053Z AUTO 30006KT 10SM FEW070 FEW090 BKN110 18/18 A3023 RMK AO2 RAB07E19 SLP226 P0000 T01830178
KDRT 202353Z AUTO 31006KT 10SM OVC065 19/18 A3021 RMK AO2 SLP219 60000 T01940178 10206 20189 53012
KDRT 202253Z AUTO 31005KT 10SM BKN050 OVC060 21/18 A3019 RMK AO2 SLP212 T02060178
KDRT 202153Z AUTO 31004KT 10SM SCT025 SCT031 OVC044 21/19 A3018 RMK AO2 SLP208 T02060189
KDRT 202138Z AUTO 30007KT 10SM BKN025 OVC042 20/19 A3018 RMK AO2 T02000189
KDRT 202053Z AUTO 29007KT 10SM OVC038 21/19 A3017 RMK AO2 SLP206 60000 T02060189 58007
KDRT 201953Z AUTO 31008KT 10SM FEW019 OVC033 19/18 A3017 RMK AO2 SLP208 T01940178
KDRT 201853Z AUTO 33011G20KT 160V340 10SM FEW019 OVC037 20/18 A3019 RMK AO2 RAB01E28 SLP212 P0000 T02000183
KDRT 201849Z AUTO 30008KT 10SM FEW019 OVC037 20/18 A3019 RMK AO2 RAB01E28 P0000
KDRT 201753Z AUTO 29007KT 10SM BKN018 BKN036 OVC070 19/18 A3021 RMK AO2 SLP218 60004 T01940178 10194 20161 58003
KDRT 201653Z AUTO 30010KT 10SM OVC036 18/18 A3022 RMK AO2 RAE18 SLP223 P0000 T01830178
KDRT 201553Z AUTO 30010KT 8SM -RA OVC037 17/17 A3022 RMK AO2 SLP225 P0001 T01720172
KDRT 201514Z AUTO 30008KT 10SM -RA OVC030 17/17 A3022 RMK AO2 P0000 T01720172
KDRT 201453Z AUTO 30008KT 7SM -RA OVC029 17/17 A3021 RMK AO2 SLP222 P0002 60003 T01720167 53014
KDRT 201438Z AUTO 30007KT 9SM -RA OVC029 17/17 A3021 RMK AO2 P0001 T01670167
KDRT 201353Z AUTO 31007KT 7SM -RA OVC030 17/17 A3020 RMK AO2 RAB22 SLP216 P0001 T01670167
KDRT 201253Z AUTO 30008KT 10SM OVC026 16/16 A3018 RMK AO2 RAE21 SLP210 P0000 T01610161
KDRT 201153Z AUTO 30007KT 10SM -RA OVC025 17/16 A3017 RMK AO2 RAB40 SLP208 P0000 60000 70021 T01670161 10172 20167 53009
KDRT 201053Z AUTO 30008KT 10SM OVC025 17/17 A3016 RMK AO2 RAE26 SLP205 P0000 T01670167
KDRT 200953Z AUTO 31006KT 10SM -RA OVC024 17/16 A3014 RMK AO2 RAB06E11B33 SLP198 P0000 T01670161
KDRT 200853Z AUTO 30006KT 10SM OVC025 17/17 A3015 RMK AO2 SLP199 T01670167 58005
KDRT 200753Z AUTO 31008KT 10SM OVC026 17/17 A3016 RMK AO2 SLP203 T01670167
KDRT 200653Z AUTO 27005KT 10SM OVC026 17/17 A3016 RMK AO2 SLP203 T01720172
KDRT 200553Z AUTO 29004KT 10SM OVC026 17/17 A3016 RMK AO2 SLP204 60000 T01720172 10172 20167 401780122 57000
KDRT 200453Z AUTO 29005KT 10SM OVC027 17/17 A3016 RMK AO2 SLP205 T01720172
KDRT 200353Z AUTO 30005KT 10SM OVC026 17/17 A3016 RMK AO2 SLP205 T01720172
KDRT 200253Z AUTO 29004KT 10SM OVC023 17/17 A3016 RMK AO2 RAE12 SLP206 P0000 60000 T01670167 51011
KDRT 200153Z AUTO 28003KT 10SM -RA OVC025 17/17 A3016 RMK AO2 RAE05B38 SLP205 P0000 T01670167
KDRT 200053Z AUTO 30006KT 10SM -RA OVC022 17/17 A3014 RMK AO2 RAB15 SLP199 P0000 T01670167